createdAt,value
2018-09-22T00:01:29.621Z,74.13
2018-09-22T00:03:58.043Z,74.09
2018-09-22T00:06:27.013Z,74.21
2018-09-22T00:08:55.357Z,74.18
2018-09-22T00:11:24.115Z,74.03
2018-09-22T00:13:52.608Z,73.92
2018-09-22T00:16:21.041Z,74.11
2018-09-22T00:18:49.156Z,74.22
2018-09-22T00:21:17.586Z,74.41
2018-09-22T00:23:46.131Z,74.52
2018-09-22T00:26:14.926Z,74.31
2018-09-22T00:28:43.699Z,73.98
2018-09-22T00:31:12.105Z,73.91
2018-09-22T00:33:40.991Z,73.92
2018-09-22T00:36:09.462Z,73.87
2018-09-22T00:38:37.569Z,73.63
2018-09-22T00:41:06.522Z,73.66
2018-09-22T00:43:35.088Z,73.73
2018-09-22T00:46:03.985Z,73.86
2018-09-22T00:48:33.278Z,74.19
2018-09-22T00:51:01.942Z,74.66
2018-09-22T00:53:30.051Z,74.58
2018-09-22T00:55:58.982Z,74.54
2018-09-22T00:58:27.410Z,74.47
2018-09-22T01:00:55.750Z,74.56
2018-09-22T01:03:24.590Z,74.72
2018-09-22T01:05:53.178Z,74.79
2018-09-22T01:08:21.734Z,74.74
2018-09-22T01:10:51.101Z,75.14
2018-09-22T01:13:19.583Z,75.60
2018-09-22T01:15:47.930Z,75.71
2018-09-22T01:18:16.573Z,75.72
2018-09-22T01:20:45.078Z,75.90
2018-09-22T01:23:13.453Z,76.16
2018-09-22T01:25:42.428Z,76.44
2018-09-22T01:28:10.552Z,76.66
2018-09-22T01:30:39.188Z,76.65
2018-09-22T01:33:08.163Z,76.54
2018-09-22T01:35:36.719Z,76.59
2018-09-22T01:38:05.570Z,76.77
2018-09-22T01:40:34.024Z,76.94
2018-09-22T01:43:02.175Z,76.88
2018-09-22T01:45:30.607Z,76.98
2018-09-22T01:47:59.184Z,77.06
2018-09-22T01:50:27.306Z,77.14
2018-09-22T01:52:55.403Z,77.01
2018-09-22T01:55:23.798Z,77.11
2018-09-22T01:57:52.259Z,77.17
2018-09-22T02:00:20.959Z,77.21
2018-09-22T02:02:49.590Z,77.08
2018-09-22T02:05:17.724Z,76.84
2018-09-22T02:07:46.147Z,76.92
2018-09-22T02:10:14.290Z,76.93
2018-09-22T02:12:42.763Z,76.86
2018-09-22T02:15:11.634Z,76.92
2018-09-22T02:17:40.327Z,76.87
2018-09-22T02:20:08.456Z,76.81
2018-09-22T02:22:37.310Z,76.86
2018-09-22T02:25:06.072Z,76.75
2018-09-22T02:27:34.385Z,76.81
2018-09-22T02:30:02.578Z,76.88
2018-09-22T02:32:31.279Z,76.68
2018-09-22T02:34:59.648Z,76.75
2018-09-22T02:37:28.547Z,76.85
2018-09-22T02:39:56.847Z,76.95
2018-09-22T02:42:25.369Z,76.97
2018-09-22T02:44:53.791Z,77.08
2018-09-22T02:47:22.177Z,77.10
2018-09-22T02:49:50.793Z,77.18
2018-09-22T02:52:19.451Z,77.15
2018-09-22T02:54:48.016Z,77.29
2018-09-22T02:57:16.391Z,77.26
2018-09-22T02:59:44.576Z,77.17
2018-09-22T03:02:12.979Z,77.04
2018-09-22T03:04:41.394Z,77.01
2018-09-22T03:07:10.299Z,77.01
2018-09-22T03:09:38.742Z,76.92
2018-09-22T03:12:07.386Z,76.95
2018-09-22T03:14:36.000Z,77.00
2018-09-22T03:17:04.456Z,77.10
2018-09-22T03:19:32.578Z,77.34
2018-09-22T03:22:01.207Z,77.51
2018-09-22T03:24:29.762Z,77.71
2018-09-22T03:26:59.614Z,77.79
2018-09-22T03:29:29.431Z,77.76
2018-09-22T03:31:58.809Z,77.81
2018-09-22T03:34:28.774Z,77.99
2018-09-22T03:36:57.588Z,78.13
2018-09-22T03:39:26.091Z,78.17
2018-09-22T03:41:55.030Z,78.55
2018-09-22T03:44:23.171Z,78.72
2018-09-22T03:46:51.479Z,78.79
2018-09-22T03:49:20.738Z,78.92
2018-09-22T03:51:48.916Z,79.10
2018-09-22T03:54:17.697Z,79.32
2018-09-22T03:56:47.671Z,79.37
2018-09-22T03:59:16.179Z,79.48
2018-09-22T04:01:45.057Z,79.51
2018-09-22T04:04:13.784Z,79.65
2018-09-22T04:06:42.445Z,79.74
2018-09-22T04:09:10.722Z,79.91
2018-09-22T04:11:40.340Z,79.97
2018-09-22T04:14:09.432Z,80.12
2018-09-22T04:16:38.425Z,80.34
2018-09-22T04:19:07.728Z,80.61
2018-09-22T04:21:36.771Z,80.66
2018-09-22T04:24:16.327Z,80.87
2018-09-22T04:26:45.823Z,80.99
2018-09-22T04:29:14.368Z,81.13
2018-09-22T04:31:43.399Z,81.22
2018-09-22T04:34:12.537Z,81.35
2018-09-22T04:36:43.465Z,81.65
2018-09-22T04:39:13.745Z,81.64
2018-09-22T04:41:43.832Z,81.82
2018-09-22T04:44:12.502Z,82.40
2018-09-22T04:46:40.992Z,82.26
2018-09-22T04:49:10.167Z,82.40
2018-09-22T04:51:39.113Z,82.29
2018-09-22T04:54:08.129Z,82.33
2018-09-22T04:56:38.270Z,82.44
2018-09-22T04:59:06.611Z,82.48
2018-09-22T05:01:35.048Z,82.65
2018-09-22T05:04:04.378Z,82.50
2018-09-22T05:06:33.442Z,82.43
2018-09-22T05:09:02.218Z,82.34
2018-09-22T05:11:31.011Z,82.17
2018-09-22T05:13:59.603Z,82.01
2018-09-22T05:16:28.268Z,81.82
2018-09-22T05:18:56.763Z,81.67
2018-09-22T05:21:24.916Z,81.64
2018-09-22T05:23:53.214Z,81.54
2018-09-22T05:26:21.888Z,81.36
2018-09-22T05:28:50.427Z,81.37
2018-09-22T05:31:21.390Z,81.40
2018-09-22T05:33:51.946Z,81.30
2018-09-22T05:36:21.227Z,81.29
2018-09-22T05:38:49.680Z,81.29
2018-09-22T05:41:19.084Z,81.41
2018-09-22T05:43:47.674Z,81.52
2018-09-22T05:46:15.831Z,81.65
2018-09-22T05:48:46.393Z,81.71
2018-09-22T05:51:15.197Z,81.69
2018-09-22T05:53:43.638Z,81.64
2018-09-22T05:56:11.865Z,81.64
2018-09-22T05:58:40.331Z,81.63
2018-09-22T06:01:08.577Z,81.56
2018-09-22T06:03:37.155Z,81.56
2018-09-22T06:06:05.357Z,81.64
2018-09-22T06:08:33.947Z,81.74
2018-09-22T06:11:04.567Z,81.85
2018-09-22T06:13:32.986Z,81.70
2018-09-22T06:16:02.904Z,81.60
2018-09-22T06:18:32.995Z,81.53
2018-09-22T06:21:02.839Z,81.32
2018-09-22T06:23:31.856Z,81.18
2018-09-22T06:26:00.019Z,81.09
2018-09-22T06:28:28.356Z,80.94
2018-09-22T06:30:57.328Z,81.00
2018-09-22T06:33:25.658Z,80.93
2018-09-22T06:35:53.931Z,80.79
2018-09-22T06:38:22.748Z,80.58
2018-09-22T06:40:51.071Z,80.12
2018-09-22T06:43:19.770Z,80.10
2018-09-22T06:45:47.988Z,79.95
2018-09-22T06:48:16.199Z,80.15
2018-09-22T06:50:44.961Z,79.65
2018-09-22T06:53:14.504Z,79.47
2018-09-22T06:55:43.796Z,79.20
2018-09-22T06:58:13.024Z,78.34
2018-09-22T07:00:41.673Z,77.71
2018-09-22T07:03:11.348Z,77.02
2018-09-22T07:05:40.138Z,76.83
2018-09-22T07:08:09.918Z,76.09
2018-09-22T07:10:41.967Z,75.26
2018-09-22T07:13:13.529Z,74.90
2018-09-22T07:15:43.946Z,74.86
2018-09-22T07:18:15.295Z,74.99
2018-09-22T07:20:50.451Z,74.73
2018-09-22T07:23:19.538Z,74.50
2018-09-22T07:25:48.081Z,74.37
2018-09-22T07:28:18.516Z,73.87
2018-09-22T07:30:47.017Z,74.25
2018-09-22T07:33:15.612Z,73.12
2018-09-22T07:35:44.215Z,73.68
2018-09-22T07:38:14.328Z,73.26
2018-09-22T07:40:44.425Z,73.00
2018-09-22T07:43:13.038Z,72.76
2018-09-22T07:45:41.315Z,72.93
2018-09-22T07:48:17.610Z,72.94
2018-09-22T07:50:45.987Z,71.88
2018-09-22T07:53:15.543Z,71.44
2018-09-22T07:55:43.730Z,71.22
2018-09-22T07:58:13.904Z,71.05
2018-09-22T08:00:42.756Z,70.69
2018-09-22T08:03:11.968Z,70.56
2018-09-22T08:05:41.951Z,70.92
2018-09-22T08:08:11.932Z,70.41
2018-09-22T08:10:40.261Z,70.04
2018-09-22T08:13:09.451Z,69.35
2018-09-22T08:15:38.044Z,69.31
2018-09-22T08:18:06.103Z,69.41
2018-09-22T08:20:35.017Z,69.37
2018-09-22T08:23:03.642Z,68.70
2018-09-22T08:25:38.329Z,68.27
2018-09-22T08:28:08.441Z,67.78
2018-09-22T08:30:43.564Z,67.19
2018-09-22T08:33:13.063Z,65.73
2018-09-22T08:35:42.038Z,65.76
2018-09-22T08:38:10.487Z,65.90
2018-09-22T08:40:38.799Z,65.78
2018-09-22T08:43:08.584Z,64.98
2018-09-22T08:45:44.725Z,64.16
2018-09-22T08:48:13.655Z,63.60
2018-09-22T08:50:50.509Z,63.39
2018-09-22T08:53:19.802Z,62.89
2018-09-22T08:55:48.354Z,61.77
2018-09-22T08:58:17.091Z,61.89
2018-09-22T09:00:45.676Z,61.54
2018-09-22T09:03:14.071Z,60.52
2018-09-22T09:05:43.678Z,60.19
2018-09-22T09:08:12.355Z,59.36
2018-09-22T09:10:45.824Z,59.00
2018-09-22T09:13:15.506Z,58.47
2018-09-22T09:15:44.220Z,58.20
2018-09-22T09:18:12.729Z,58.81
2018-09-22T09:20:40.965Z,58.50
2018-09-22T09:23:10.213Z,57.85
2018-09-22T09:25:38.643Z,57.38
2018-09-22T09:28:09.267Z,57.20
2018-09-22T09:30:38.168Z,56.71
2018-09-22T09:33:08.046Z,54.95
2018-09-22T09:35:36.444Z,55.02
2018-09-22T09:38:05.140Z,54.88
2018-09-22T09:40:35.828Z,54.70
2018-09-22T09:43:04.877Z,55.00
2018-09-22T09:45:33.587Z,55.85
2018-09-22T09:48:06.075Z,55.25
2018-09-22T09:50:36.586Z,54.37
2018-09-22T09:53:05.063Z,52.98
2018-09-22T09:55:33.900Z,52.35
2018-09-22T09:58:02.928Z,51.72
2018-09-22T10:00:38.210Z,51.99
2018-09-22T10:03:07.195Z,51.78
2018-09-22T10:05:37.946Z,52.99
2018-09-22T10:08:08.087Z,51.94
2018-09-22T10:10:38.379Z,52.48
2018-09-22T10:13:08.843Z,52.31
2018-09-22T10:15:40.214Z,52.76
2018-09-22T10:18:14.086Z,51.69
2018-09-22T10:20:44.187Z,50.94
2018-09-22T10:23:12.670Z,51.39
2018-09-22T10:25:42.140Z,52.30
2018-09-22T10:28:11.064Z,52.15
2018-09-22T10:30:41.087Z,52.46
2018-09-22T10:33:12.149Z,52.22
2018-09-22T10:35:43.679Z,51.75
2018-09-22T10:38:11.998Z,52.16
2018-09-22T10:40:44.199Z,50.42
2018-09-22T10:43:13.464Z,49.58
2018-09-22T10:45:41.931Z,49.92
2018-09-22T10:48:13.658Z,49.25
2018-09-22T10:50:42.306Z,48.92
2018-09-22T10:53:12.317Z,48.26
2018-09-22T10:55:41.770Z,46.99
2018-09-22T10:58:10.979Z,45.54
2018-09-22T11:00:40.349Z,45.50
2018-09-22T11:03:09.516Z,46.81
2018-09-22T11:05:39.219Z,46.59
2018-09-22T11:08:12.233Z,46.47
2018-09-22T11:10:43.331Z,46.37
2018-09-22T11:13:13.762Z,46.13
2018-09-22T11:15:42.559Z,46.17
2018-09-22T11:18:11.164Z,46.79
2018-09-22T11:20:40.416Z,46.65
2018-09-22T11:23:09.240Z,45.17
2018-09-22T11:25:38.239Z,45.18
2018-09-22T11:28:08.258Z,45.53
2018-09-22T11:30:36.613Z,44.85
2018-09-22T11:33:06.583Z,43.61
2018-09-22T11:35:34.880Z,44.01
2018-09-22T11:38:07.875Z,43.36
2018-09-22T11:40:37.271Z,42.54
2018-09-22T11:43:07.875Z,43.13
2018-09-22T11:45:36.440Z,42.85
2018-09-22T11:48:05.785Z,42.52
2018-09-22T11:50:34.471Z,42.79
2018-09-22T11:53:03.893Z,43.01
2018-09-22T11:55:35.848Z,43.30
2018-09-22T11:58:05.844Z,42.81
2018-09-22T12:00:35.488Z,43.20
2018-09-22T12:03:04.957Z,43.50
2018-09-22T12:05:34.087Z,43.46
2018-09-22T12:08:03.122Z,43.41
2018-09-22T12:10:37.203Z,43.35
2018-09-22T12:13:06.887Z,43.07
2018-09-22T12:15:35.429Z,42.93
2018-09-22T12:18:04.408Z,43.45
2018-09-22T12:20:33.086Z,43.81
2018-09-22T12:23:02.070Z,42.98
2018-09-22T12:25:31.347Z,42.93
2018-09-22T12:27:59.621Z,43.19
2018-09-22T12:30:28.338Z,42.51
2018-09-22T12:33:01.402Z,42.19
2018-09-22T12:35:30.910Z,42.04
2018-09-22T12:38:00.564Z,42.52
2018-09-22T12:40:29.575Z,42.45
2018-09-22T12:42:59.091Z,42.81
2018-09-22T12:45:27.977Z,42.14
2018-09-22T12:47:57.574Z,41.62
2018-09-22T12:50:25.973Z,41.59
2018-09-22T12:52:55.040Z,41.46
2018-09-22T12:55:24.353Z,40.76
2018-09-22T12:57:54.077Z,40.84
2018-09-22T13:00:23.295Z,40.76
2018-09-22T13:02:51.842Z,41.27
2018-09-22T13:05:20.139Z,41.22
2018-09-22T13:07:50.031Z,40.79
2018-09-22T13:10:19.108Z,41.09
2018-09-22T13:12:47.275Z,40.32
2018-09-22T13:15:15.944Z,40.38
2018-09-22T13:17:44.921Z,40.65
2018-09-22T13:20:13.251Z,40.62
2018-09-22T13:22:41.852Z,40.34
2018-09-22T13:25:10.166Z,40.85
2018-09-22T13:27:39.010Z,40.84
2018-09-22T13:30:07.715Z,41.17
2018-09-22T13:32:36.341Z,41.05
2018-09-22T13:35:05.275Z,41.32
2018-09-22T13:37:33.512Z,41.12
2018-09-22T13:40:02.294Z,41.04
2018-09-22T13:42:30.823Z,40.79
2018-09-22T13:44:59.178Z,40.28
2018-09-22T13:47:28.720Z,40.46
2018-09-22T13:49:58.213Z,40.50
2018-09-22T13:52:28.265Z,40.19
2018-09-22T13:54:58.159Z,40.24
2018-09-22T13:57:26.411Z,40.25
2018-09-22T13:59:55.343Z,40.38
2018-09-22T14:02:24.164Z,40.51
2018-09-22T14:04:53.266Z,40.43
2018-09-22T14:07:22.169Z,40.17
2018-09-22T14:09:50.990Z,39.81
2018-09-22T14:12:19.274Z,40.16
2018-09-22T14:14:47.491Z,40.24
2018-09-22T14:17:15.858Z,40.07
2018-09-22T14:19:44.696Z,40.63
2018-09-22T14:22:13.180Z,41.01
2018-09-22T14:24:41.959Z,40.98
2018-09-22T14:27:10.781Z,41.07
2018-09-22T14:29:39.088Z,41.03
2018-09-22T14:32:07.695Z,41.52
2018-09-22T14:34:35.949Z,41.70
2018-09-22T14:37:04.841Z,41.96
2018-09-22T14:39:33.468Z,42.23
2018-09-22T14:42:02.363Z,42.40
2018-09-22T14:44:31.050Z,42.68
2018-09-22T14:46:59.475Z,42.74
2018-09-22T14:49:27.929Z,42.87
2018-09-22T14:51:56.101Z,43.19
2018-09-22T14:54:25.047Z,43.12
2018-09-22T14:56:53.262Z,43.34
2018-09-22T14:59:22.283Z,43.34
2018-09-22T15:01:51.130Z,43.13
2018-09-22T15:04:20.103Z,43.39
2018-09-22T15:06:48.723Z,43.04
2018-09-22T15:09:17.445Z,42.84
2018-09-22T15:11:45.980Z,43.08
2018-09-22T15:14:14.338Z,43.02
2018-09-22T15:16:43.208Z,43.45
2018-09-22T15:19:11.736Z,43.58
2018-09-22T15:21:41.337Z,43.55
2018-09-22T15:24:10.154Z,43.48
2018-09-22T15:26:38.743Z,43.93
2018-09-22T15:29:07.512Z,44.15
2018-09-22T15:31:36.297Z,44.23
2018-09-22T15:34:04.885Z,44.46
2018-09-22T15:36:34.211Z,44.94
2018-09-22T15:39:03.620Z,45.41
2018-09-22T15:41:32.079Z,45.76
2018-09-22T15:44:00.756Z,45.68
2018-09-22T15:46:29.713Z,46.13
2018-09-22T15:48:57.996Z,46.13
2018-09-22T15:51:26.395Z,46.14
2018-09-22T15:53:55.230Z,46.26
2018-09-22T15:56:23.770Z,46.53
2018-09-22T15:58:56.647Z,46.86
2018-09-22T16:01:26.992Z,47.18
2018-09-22T16:03:56.174Z,47.31
2018-09-22T16:06:24.817Z,47.67
2018-09-22T16:08:54.376Z,47.90
2018-09-22T16:11:22.978Z,48.21
2018-09-22T16:13:51.404Z,48.46
2018-09-22T16:16:20.819Z,48.78
2018-09-22T16:18:50.160Z,48.90
2018-09-22T16:21:19.643Z,49.71
2018-09-22T16:23:47.988Z,50.79
2018-09-22T16:26:17.375Z,50.99
2018-09-22T16:28:47.325Z,51.71
2018-09-22T16:31:17.233Z,51.41
2018-09-22T16:33:45.415Z,51.03
2018-09-22T16:36:14.172Z,50.80
2018-09-22T16:38:42.382Z,50.94
2018-09-22T16:41:10.795Z,50.99
2018-09-22T16:43:39.240Z,51.18
2018-09-22T16:46:07.499Z,51.46
2018-09-22T16:48:35.934Z,51.84
2018-09-22T16:51:04.570Z,52.05
2018-09-22T16:53:33.306Z,52.32
2018-09-22T16:56:01.887Z,53.20
2018-09-22T16:58:30.773Z,53.69
2018-09-22T17:00:59.591Z,53.89
2018-09-22T17:03:27.871Z,54.07
2018-09-22T17:05:56.619Z,53.98
2018-09-22T17:08:24.772Z,54.29
2018-09-22T17:10:53.027Z,54.59
2018-09-22T17:13:21.357Z,54.49
2018-09-22T17:15:49.747Z,54.50
2018-09-22T17:18:18.390Z,54.60
2018-09-22T17:20:51.866Z,55.12
2018-09-22T17:23:21.755Z,55.78
2018-09-22T17:25:51.586Z,56.56
2018-09-22T17:28:21.152Z,56.89
2018-09-22T17:30:49.623Z,57.13
2018-09-22T17:33:19.315Z,57.51
2018-09-22T17:35:48.223Z,57.93
2018-09-22T17:38:16.856Z,57.91
2018-09-22T17:40:46.518Z,57.86
2018-09-22T17:43:14.856Z,58.03
2018-09-22T17:45:43.135Z,58.38
2018-09-22T17:48:11.398Z,58.65
2018-09-22T17:50:41.106Z,58.89
2018-09-22T17:53:09.891Z,59.20
2018-09-22T17:55:40.878Z,59.49
2018-09-22T17:58:09.329Z,59.95
2018-09-22T18:00:37.944Z,60.06
2018-09-22T18:03:06.423Z,60.24
2018-09-22T18:05:35.749Z,61.36
2018-09-22T18:08:04.372Z,61.97
2018-09-22T18:10:33.431Z,63.33
2018-09-22T18:13:02.506Z,64.15
2018-09-22T18:15:30.992Z,65.51
2018-09-22T18:17:59.673Z,67.24
2018-09-22T18:20:28.870Z,68.80
2018-09-22T18:22:57.883Z,69.88
2018-09-22T18:25:29.086Z,71.07
2018-09-22T18:27:58.178Z,73.67
2018-09-22T18:30:27.099Z,75.10
2018-09-22T18:32:56.155Z,76.99
2018-09-22T18:35:24.991Z,78.66
2018-09-22T18:37:54.326Z,78.88
2018-09-22T18:40:23.114Z,80.10
2018-09-22T18:42:52.029Z,80.72
2018-09-22T18:45:24.594Z,80.97
2018-09-22T18:47:53.462Z,82.63
2018-09-22T18:50:22.864Z,83.35
2018-09-22T18:52:52.342Z,82.76
2018-09-22T18:55:21.366Z,83.16
2018-09-22T18:57:50.558Z,83.92
2018-09-22T19:00:20.947Z,84.24
2018-09-22T19:02:52.631Z,83.87
2018-09-22T19:05:26.879Z,84.14
2018-09-22T19:07:57.373Z,84.15
2018-09-22T19:10:28.009Z,84.65
2018-09-22T19:12:58.216Z,84.53
2018-09-22T19:15:33.128Z,84.51
2018-09-22T19:18:10.392Z,84.91
2018-09-22T19:20:50.645Z,84.96
2018-09-22T19:23:23.582Z,84.58
2018-09-22T19:25:56.341Z,84.81
2018-09-22T19:28:48.325Z,84.92
2018-09-22T19:31:20.926Z,85.03
2018-09-22T19:33:54.830Z,85.19
2018-09-22T19:37:30.677Z,85.22
2018-09-22T19:40:07.698Z,85.37
2018-09-22T19:42:44.433Z,85.30
2018-09-22T19:45:23.720Z,85.00
2018-09-22T19:47:57.983Z,84.89
2018-09-22T19:50:35.964Z,84.48
2018-09-22T19:53:04.948Z,84.30
2018-09-22T19:55:33.181Z,84.34
2018-09-22T19:58:01.459Z,84.51
2018-09-22T20:00:30.298Z,84.77
2018-09-22T20:02:58.901Z,84.95
2018-09-22T20:05:27.320Z,85.35
2018-09-22T20:07:55.945Z,85.96
2018-09-22T20:10:24.345Z,86.21
2018-09-22T20:12:52.743Z,87.01
2018-09-22T20:15:21.764Z,87.84
2018-09-22T20:17:50.443Z,88.43
2018-09-22T20:20:21.492Z,89.12
2018-09-22T20:22:50.531Z,89.70
2018-09-22T20:25:20.143Z,89.81
2018-09-22T20:27:49.206Z,89.88
2018-09-22T20:30:18.098Z,90.06
2018-09-22T20:32:46.330Z,89.73
2018-09-22T20:35:15.580Z,89.77
2018-09-22T20:37:44.157Z,89.84
2018-09-22T20:40:13.843Z,90.57
2018-09-22T20:42:43.105Z,90.58
2018-09-22T20:45:11.489Z,90.68
2018-09-22T20:47:43.103Z,91.03
2018-09-22T20:50:13.024Z,91.02
2018-09-22T20:52:43.147Z,90.76
2018-09-22T20:55:11.388Z,90.87
2018-09-22T20:57:40.059Z,91.04
2018-09-22T21:00:10.497Z,91.02
2018-09-22T21:02:39.060Z,91.00
2018-09-22T21:05:07.708Z,90.81
2018-09-22T21:07:36.632Z,91.31
2018-09-22T21:10:06.095Z,91.23
2018-09-22T21:12:34.954Z,91.18
2018-09-22T21:15:04.291Z,91.30
2018-09-22T21:17:33.634Z,91.47
2018-09-22T21:20:02.855Z,91.44
2018-09-22T21:22:31.183Z,91.44
2018-09-22T21:24:59.358Z,91.81
2018-09-22T21:27:27.839Z,91.77
2018-09-22T21:29:56.447Z,92.07
2018-09-22T21:32:24.767Z,91.92
2018-09-22T21:34:53.531Z,91.87
2018-09-22T21:37:21.802Z,92.03
2018-09-22T21:39:50.065Z,92.54
2018-09-22T21:42:18.529Z,92.88
2018-09-22T21:44:46.847Z,92.91
2018-09-22T21:47:15.243Z,93.08
2018-09-22T21:49:44.199Z,93.19
2018-09-22T21:52:12.583Z,93.86
2018-09-22T21:54:41.571Z,94.29
2018-09-22T21:57:10.307Z,94.38
2018-09-22T21:59:38.440Z,94.57
2018-09-22T22:02:07.059Z,94.86
2018-09-22T22:04:35.327Z,95.53
2018-09-22T22:07:03.985Z,95.82
2018-09-22T22:09:32.190Z,95.78
2018-09-22T22:12:00.641Z,95.70
2018-09-22T22:14:28.783Z,95.70
2018-09-22T22:16:56.890Z,95.85
2018-09-22T22:19:25.028Z,95.79
2018-09-22T22:21:53.906Z,95.97
2018-09-22T22:24:22.184Z,96.02
2018-09-22T22:26:50.735Z,95.88
2018-09-22T22:29:19.227Z,95.98
2018-09-22T22:31:47.712Z,95.74
2018-09-22T22:34:16.547Z,95.65
2018-09-22T22:36:44.952Z,95.38
2018-09-22T22:39:13.163Z,95.37
2018-09-22T22:41:44.670Z,95.14
2018-09-22T22:44:13.018Z,95.01
2018-09-22T22:46:41.200Z,94.89
2018-09-22T22:49:09.501Z,94.81
2018-09-22T22:51:37.965Z,94.83
2018-09-22T22:54:06.228Z,94.74
2018-09-22T22:56:34.812Z,94.55
2018-09-22T22:59:03.188Z,94.48
2018-09-22T23:01:31.516Z,94.34
2018-09-22T23:03:59.803Z,94.20
2018-09-22T23:06:28.070Z,94.13
2018-09-22T23:08:56.462Z,94.16
2018-09-22T23:11:25.216Z,94.25
2018-09-22T23:13:53.464Z,94.15
2018-09-22T23:16:21.762Z,94.31
2018-09-22T23:18:50.200Z,94.48
2018-09-22T23:21:18.383Z,94.41
2018-09-22T23:23:46.524Z,94.30
2018-09-22T23:26:14.984Z,94.30
2018-09-22T23:28:43.167Z,94.43
2018-09-22T23:31:11.720Z,94.35
2018-09-22T23:33:40.567Z,94.24
2018-09-22T23:36:08.791Z,94.22
2018-09-22T23:38:36.933Z,94.36
2018-09-22T23:41:06.418Z,94.16
2018-09-22T23:43:35.365Z,94.02
2018-09-22T23:46:03.795Z,94.04
2018-09-22T23:48:32.577Z,93.83
2018-09-22T23:51:01.183Z,93.74
2018-09-22T23:53:29.974Z,93.71
2018-09-22T23:55:58.947Z,93.75
2018-09-22T23:58:27.754Z,93.68
